Wetterdaten: Woche 02.03.15 - 08.03.15 (KW10)
Datum Zeit Temp. A. Feuchte A. Luftdruck Regen Wind Richtung Sonnenschein ET UV Solar Taupunkt Windchill Windben Empfang
02.03.2015 00:00 4,3 C 92 % 1006,7 hPa 0,0 l/m 0,0 km/h (0 Bft) N 0,00 h 0,000 mm 0,0 UV-I 0 W/m 3,0 C 4,3 C 0,0 km/h (0 Bft) 0,00 %
02.03.2015 01:00 3,6 C 92 % 1007,0 hPa 1,8 l/m 0,1 km/h (0 Bft) N 0,00 h 0,000 mm 0,0 UV-I 0 W/m 2,3 C 3,6 C 1,0 km/h (0 Bft) 0,00 %
02.03.2015 02:00 5,9 C 88 % 1005,9 hPa 0,9 l/m 0,4 km/h (0 Bft) O 0,00 h 0,000 mm 0,0 UV-I 0 W/m 4,0 C 5,9 C 2,0 km/h (1 Bft) 0,00 %
02.03.2015 03:00 6,0 C 86 % 1004,8 hPa 0,3 l/m 0,0 km/h (0 Bft) N 0,00 h 0,000 mm 0,0 UV-I 0 W/m 3,8 C 6,0 C 0,0 km/h (0 Bft) 0,00 %
02.03.2015 04:00 5,9 C 86 % 1003,2 hPa 0,0 l/m 0,0 km/h (0 Bft) N 0,00 h 0,000 mm 0,0 UV-I 0 W/m 3,7 C 5,9 C 0,0 km/h (0 Bft) 0,00 %
02.03.2015 05:00 5,4 C 89 % 1002,7 hPa 0,3 l/m 0,0 km/h (0 Bft) N 0,00 h 0,000 mm 0,0 UV-I 0 W/m 3,8 C 5,4 C 0,0 km/h (0 Bft) 0,00 %
02.03.2015 06:00 6,2 C 84 % 1002,2 hPa 0,3 l/m 0,0 km/h (0 Bft) NO 0,00 h 0,000 mm 0,0 UV-I 0 W/m 3,7 C 6,2 C 0,0 km/h (0 Bft) 0,00 %
02.03.2015 07:00 7,3 C 81 % 1002,1 hPa 0,9 l/m 1,6 km/h (1 Bft) SW 0,00 h 0,000 mm 0,0 UV-I 7 W/m 4,2 C 7,3 C 4,0 km/h (1 Bft) 0,00 %
02.03.2015 08:00 7,2 C 83 % 1001,7 hPa 0,3 l/m 0,8 km/h (0 Bft) N 0,00 h 0,000 mm 1,0 UV-I 69 W/m 4,4 C 7,2 C 2,0 km/h (1 Bft) 0,00 %
02.03.2015 09:00 7,0 C 84 % 1003,0 hPa 2,4 l/m 4,4 km/h (1 Bft) S-SO 0,00 h 0,000 mm 1,0 UV-I 51 W/m 4,4 C 6,7 C 6,9 km/h (2 Bft) 0,00 %
02.03.2015 10:00 6,9 C 84 % 1002,6 hPa 0,9 l/m 2,5 km/h (1 Bft) W-SW 0,00 h 0,000 mm 1,0 UV-I 54 W/m 4,3 C 6,8 C 4,0 km/h (1 Bft) 0,00 %
02.03.2015 11:00 5,8 C 84 % 1004,1 hPa 3,0 l/m 10,4 km/h (2 Bft) W-SW 0,00 h 0,000 mm 1,0 UV-I 87 W/m 3,3 C 2,2 C 16,0 km/h (3 Bft) 0,00 %
02.03.2015 12:00 4,9 C 83 % 1005,8 hPa 0,6 l/m 6,9 km/h (2 Bft) NO 0,00 h 0,000 mm 1,0 UV-I 73 W/m 2,2 C 3,5 C 10,9 km/h (2 Bft) 0,00 %
02.03.2015 13:00 4,4 C 83 % 1005,9 hPa 0,6 l/m 4,9 km/h (1 Bft) SW 0,00 h 0,000 mm 1,3 UV-I 81 W/m 1,7 C 4,4 C 8,9 km/h (2 Bft) 0,00 %
02.03.2015 14:00 4,3 C 81 % 1006,9 hPa 0,3 l/m 7,6 km/h (2 Bft) NO 0,00 h 0,000 mm 1,0 UV-I 73 W/m 1,3 C 2,7 C 12,9 km/h (3 Bft) 0,00 %
02.03.2015 15:00 4,3 C 76 % 1007,6 hPa 0,0 l/m 3,5 km/h (1 Bft) O 0,00 h 0,000 mm 1,0 UV-I 86 W/m 0,4 C 3,9 C 7,9 km/h (2 Bft) 0,00 %
02.03.2015 16:00 4,4 C 72 % 1008,6 hPa 0,0 l/m 4,9 km/h (1 Bft) W-SW 0,00 h 0,000 mm 1,0 UV-I 40 W/m -0,2 C 3,9 C 7,9 km/h (2 Bft) 0,00 %
02.03.2015 17:00 2,9 C 78 % 1010,6 hPa 2,4 l/m 5,5 km/h (1 Bft) W-SW 0,00 h 0,000 mm 0,0 UV-I 0 W/m -0,5 C 1,9 C 8,9 km/h (2 Bft) 0,00 %
02.03.2015 18:00 1,9 C 84 % 1011,5 hPa 0,0 l/m 0,0 km/h (0 Bft) W-SW 0,00 h 0,000 mm 0,0 UV-I 0 W/m -0,6 C 1,9 C 0,0 km/h (0 Bft) 0,00 %
02.03.2015 19:00 3,1 C 80 % 1012,2 hPa 0,0 l/m 2,5 km/h (1 Bft) N-NW 0,00 h 0,000 mm 0,0 UV-I 0 W/m 0,0 C 2,7 C 5,9 km/h (2 Bft) 0,00 %
02.03.2015 20:00 3,2 C 78 % 1012,5 hPa 0,0 l/m 1,2 km/h (1 Bft) W-SW 0,00 h 0,000 mm 0,0 UV-I 0 W/m -0,2 C 3,2 C 4,9 km/h (1 Bft) 0,00 %
02.03.2015 21:00 3,0 C 78 % 1012,6 hPa 0,0 l/m 0,1 km/h (0 Bft) W-SW 0,00 h 0,000 mm 0,0 UV-I 0 W/m -0,4 C 3,0 C 1,0 km/h (0 Bft) 0,00 %
02.03.2015 22:00 2,1 C 80 % 1014,2 hPa 1,8 l/m 5,1 km/h (1 Bft) W-SW 0,00 h 0,000 mm 0,0 UV-I 0 W/m -1,1 C 1,5 C 9,9 km/h (2 Bft) 0,00 %
02.03.2015 23:00 1,9 C 81 % 1015,8 hPa 0,0 l/m 3,2 km/h (1 Bft) S 0,00 h 0,000 mm 0,0 UV-I 0 W/m -1,1 C 1,9 C 5,9 km/h (2 Bft) 0,00 %
03.03.2015 00:00 2,0 C 78 % 1017,2 hPa 0,0 l/m 13,9 km/h (3 Bft) W-SW 0,00 h 0,000 mm 0,0 UV-I 0 W/m -1,5 C -3,0 C 19,9 km/h (4 Bft) 0,00 %
03.03.2015 01:00 -0,2 C 84 % 1019,8 hPa 0,0 l/m 4,4 km/h (1 Bft) W-SW 0,00 h 0,000 mm 0,0 UV-I 0 W/m -2,5 C -0,2 C 6,9 km/h (2 Bft) 0,00 %
03.03.2015 02:00 0,1 C 81 % 1020,3 hPa 0,0 l/m 3,1 km/h (1 Bft) W 0,00 h 0,000 mm 0,0 UV-I 0 W/m -2,9 C -0,2 C 5,9 km/h (2 Bft) 0,00 %
03.03.2015 03:00 0,6 C 75 % 1020,5 hPa 0,0 l/m 5,3 km/h (1 Bft) S-SW 0,00 h 0,000 mm 0,0 UV-I 0 W/m -3,4 C -0,3 C 10,9 km/h (2 Bft) 0,00 %
03.03.2015 04:00 1,2 C 69 % 1021,1 hPa 0,0 l/m 10,8 km/h (2 Bft) SW 0,00 h 0,000 mm 0,0 UV-I 0 W/m -3,8 C -2,7 C 14,0 km/h (3 Bft) 0,00 %
03.03.2015 05:00 0,8 C 67 % 1022,0 hPa 0,0 l/m 4,9 km/h (1 Bft) S 0,00 h 0,000 mm 0,0 UV-I 0 W/m -4,5 C 0,8 C 8,9 km/h (2 Bft) 0,00 %
03.03.2015 06:00 0,8 C 65 % 1022,5 hPa 0,0 l/m 1,2 km/h (1 Bft) SW 0,00 h 0,000 mm 0,0 UV-I 0 W/m -5,0 C 0,8 C 4,0 km/h (1 Bft) 0,00 %
03.03.2015 07:00 1,3 C 63 % 1023,2 hPa 0,0 l/m 0,7 km/h (0 Bft) SW 0,00 h 0,000 mm 1,0 UV-I 51 W/m -4,9 C 1,3 C 4,0 km/h (1 Bft) 0,00 %
03.03.2015 08:00 2,7 C 62 % 1023,5 hPa 0,0 l/m 2,2 km/h (1 Bft) W-SW 0,00 h 0,000 mm 1,0 UV-I 87 W/m -3,8 C 2,7 C 5,9 km/h (2 Bft) 0,00 %
03.03.2015 09:00 4,3 C 60 % 1023,7 hPa 0,9 l/m 0,7 km/h (0 Bft) O 0,00 h 0,000 mm 1,7 UV-I 158 W/m -2,9 C 4,3 C 4,0 km/h (1 Bft) 0,00 %
03.03.2015 10:00 4,2 C 60 % 1023,9 hPa 0,3 l/m 1,1 km/h (1 Bft) W-SW 0,00 h 0,000 mm 1,7 UV-I 180 W/m -2,9 C 4,2 C 3,0 km/h (1 Bft) 0,00 %
03.03.2015 11:00 5,6 C 53 % 1023,5 hPa 0,0 l/m 5,2 km/h (1 Bft) W-NW 0,25 h 0,000 mm 2,0 UV-I 227 W/m -3,1 C 5,5 C 8,9 km/h (2 Bft) 0,00 %
03.03.2015 12:00 6,4 C 49 % 1023,3 hPa 0,0 l/m 9,0 km/h (2 Bft) W-SW 0,00 h 0,000 mm 2,0 UV-I 172 W/m -3,7 C 3,8 C 12,9 km/h (3 Bft) 0,00 %
03.03.2015 13:00 6,6 C 47 % 1022,8 hPa 0,0 l/m 1,9 km/h (1 Bft) W-SW 0,00 h 0,000 mm 2,0 UV-I 242 W/m -3,8 C 6,6 C 4,0 km/h (1 Bft) 0,00 %
03.03.2015 14:00 7,1 C 41 % 1021,7 hPa 0,0 l/m 6,0 km/h (2 Bft) N-NW 1,00 h 0,000 mm 1,7 UV-I 312 W/m -5,2 C 6,0 C 8,9 km/h (2 Bft) 0,00 %
03.03.2015 15:00 7,5 C 37 % 1020,5 hPa 0,0 l/m 4,0 km/h (1 Bft) W-SW 1,00 h 0,000 mm 1,0 UV-I 283 W/m -6,3 C 7,3 C 8,9 km/h (2 Bft) 0,00 %
03.03.2015 16:00 7,9 C 33 % 1020,4 hPa 0,0 l/m 3,8 km/h (1 Bft) W-SW 1,00 h 0,000 mm 1,0 UV-I 388 W/m -7,3 C 7,5 C 7,9 km/h (2 Bft) 0,00 %
03.03.2015 17:00 6,7 C 39 % 1021,1 hPa 0,0 l/m 0,8 km/h (0 Bft) W-NW 0,75 h 0,000 mm 0,0 UV-I 79 W/m -6,3 C 6,7 C 2,0 km/h (1 Bft) 0,00 %
03.03.2015 18:00 3,5 C 54 % 1021,9 hPa 0,0 l/m 0,1 km/h (0 Bft) N 0,00 h 0,000 mm 0,0 UV-I 0 W/m -4,9 C 3,5 C 1,0 km/h (0 Bft) 0,00 %
03.03.2015 19:00 1,7 C 58 % 1022,1 hPa 0,0 l/m 0,0 km/h (0 Bft) N 0,00 h 0,000 mm 0,0 UV-I 0 W/m -5,7 C 1,7 C 0,0 km/h (0 Bft) 0,00 %
03.03.2015 20:00 1,0 C 59 % 1021,9 hPa 0,0 l/m 0,0 km/h (0 Bft) N 0,00 h 0,000 mm 0,0 UV-I 0 W/m -6,2 C 1,0 C 0,0 km/h (0 Bft) 0,00 %
03.03.2015 21:00 -0,3 C 65 % 1022,0 hPa 0,0 l/m 0,0 km/h (0 Bft) N 0,00 h 0,000 mm 0,0 UV-I 0 W/m -6,1 C -0,3 C 0,0 km/h (0 Bft) 0,00 %
03.03.2015 22:00 -0,3 C 64 % 1021,8 hPa 0,0 l/m 0,0 km/h (0 Bft) N 0,00 h 0,000 mm 0,0 UV-I 0 W/m -6,3 C -0,3 C 0,0 km/h (0 Bft) 0,00 %
03.03.2015 23:00 -0,4 C 63 % 1021,7 hPa 0,0 l/m 0,0 km/h (0 Bft) N 0,00 h 0,000 mm 0,0 UV-I 0 W/m -6,5 C -0,4 C 0,0 km/h (0 Bft) 0,00 %
04.03.2015 00:00 -0,6 C 67 % 1020,8 hPa 0,0 l/m 0,0 km/h (0 Bft) N 0,00 h 0,000 mm 0,0 UV-I 0 W/m -6,0 C -0,6 C 0,0 km/h (0 Bft) 0,00 %
04.03.2015 01:00 -0,5 C 70 % 1020,8 hPa 0,0 l/m 0,2 km/h (0 Bft) N 0,00 h 0,000 mm 0,0 UV-I 0 W/m -5,4 C -0,5 C 1,0 km/h (0 Bft) 0,00 %
04.03.2015 02:00 -0,5 C 66 % 1020,4 hPa 0,0 l/m 0,0 km/h (0 Bft) N 0,00 h 0,000 mm 0,0 UV-I 0 W/m -6,1 C -0,5 C 0,0 km/h (0 Bft) 0,00 %
04.03.2015 03:00 -0,1 C 64 % 1020,0 hPa 0,0 l/m 0,0 km/h (0 Bft) N 0,00 h 0,000 mm 0,0 UV-I 0 W/m -6,1 C -0,1 C 0,0 km/h (0 Bft) 0,00 %
04.03.2015 04:00 1,8 C 60 % 1020,2 hPa 0,0 l/m 1,7 km/h (1 Bft) W-SW 0,00 h 0,000 mm 0,0 UV-I 0 W/m -5,1 C 1,8 C 4,0 km/h (1 Bft) 0,00 %
04.03.2015 05:00 3,0 C 66 % 1020,9 hPa 0,0 l/m 3,2 km/h (1 Bft) W-SW 0,00 h 0,000 mm 0,0 UV-I 0 W/m -2,7 C 3,0 C 5,9 km/h (2 Bft) 0,00 %
04.03.2015 06:00 2,0 C 79 % 1022,4 hPa 0,6 l/m 4,3 km/h (1 Bft) SW 0,00 h 0,000 mm 0,0 UV-I 0 W/m -1,3 C 2,0 C 8,9 km/h (2 Bft) 0,00 %
04.03.2015 07:00 1,5 C 79 % 1023,9 hPa 0,0 l/m 1,0 km/h (0 Bft) W-NW 0,00 h 0,000 mm 1,0 UV-I 9 W/m -1,7 C 1,5 C 4,0 km/h (1 Bft) 0,00 %
04.03.2015 08:00 1,8 C 79 % 1025,0 hPa 0,3 l/m 1,5 km/h (1 Bft) S-SW 0,00 h 0,000 mm 1,0 UV-I 46 W/m -1,5 C 1,8 C 4,0 km/h (1 Bft) 0,00 %
04.03.2015 09:00 2,8 C 79 % 1025,4 hPa 0,0 l/m 3,5 km/h (1 Bft) W-SW 0,00 h 0,000 mm 1,7 UV-I 150 W/m -0,5 C 2,8 C 7,9 km/h (2 Bft) 0,00 %
04.03.2015 10:00 3,5 C 75 % 1024,3 hPa 0,0 l/m 2,1 km/h (1 Bft) W-NW 0,00 h 0,000 mm 2,0 UV-I 162 W/m -0,5 C 3,5 C 4,9 km/h (1 Bft) 0,00 %
04.03.2015 11:00 5,1 C 68 % 1024,0 hPa 0,0 l/m 3,9 km/h (1 Bft) SW 0,25 h 0,000 mm 3,3 UV-I 285 W/m -0,3 C 4,9 C 5,9 km/h (2 Bft) 0,00 %
04.03.2015 12:00 6,4 C 60 % 1023,5 hPa 0,0 l/m 6,4 km/h (2 Bft) SO 0,00 h 0,000 mm 2,3 UV-I 215 W/m -0,8 C 5,4 C 11,9 km/h (2 Bft) 0,00 %
04.03.2015 13:00 5,0 C 64 % 1024,1 hPa 0,3 l/m 2,5 km/h (1 Bft) W-SW 0,00 h 0,000 mm 1,0 UV-I 143 W/m -1,4 C 5,0 C 4,0 km/h (1 Bft) 0,00 %
04.03.2015 14:00 2,8 C 77 % 1024,6 hPa 0,3 l/m 1,6 km/h (1 Bft) W-SW 0,00 h 0,000 mm 1,3 UV-I 120 W/m -0,8 C 2,8 C 4,0 km/h (1 Bft) 0,00 %
04.03.2015 15:00 4,1 C 66 % 1024,3 hPa 0,0 l/m 4,2 km/h (1 Bft) W-SW 0,00 h 0,000 mm 1,0 UV-I 110 W/m -1,6 C 3,2 C 6,9 km/h (2 Bft) 0,00 %
04.03.2015 16:00 4,6 C 62 % 1024,1 hPa 0,0 l/m 1,0 km/h (0 Bft) W-SW 0,50 h 0,000 mm 1,0 UV-I 174 W/m -2,0 C 4,6 C 4,0 km/h (1 Bft) 0,00 %
04.03.2015 17:00 3,5 C 65 % 1025,4 hPa 0,0 l/m 0,2 km/h (0 Bft) N 0,00 h 0,000 mm 0,0 UV-I 17 W/m -2,4 C 3,5 C 1,0 km/h (0 Bft) 0,00 %
04.03.2015 18:00 2,5 C 69 % 1026,7 hPa 0,0 l/m 0,0 km/h (0 Bft) N 0,00 h 0,000 mm 0,0 UV-I 0 W/m -2,6 C 2,5 C 0,0 km/h (0 Bft) 0,00 %
04.03.2015 19:00 1,7 C 71 % 1027,2 hPa 0,0 l/m 0,0 km/h (0 Bft) N 0,00 h 0,000 mm 0,0 UV-I 0 W/m -3,1 C 1,7 C 0,0 km/h (0 Bft) 0,00 %
04.03.2015 20:00 1,2 C 73 % 1027,2 hPa 0,0 l/m 0,0 km/h (0 Bft) N 0,00 h 0,000 mm 0,0 UV-I 0 W/m -3,1 C 1,2 C 0,0 km/h (0 Bft) 0,00 %
04.03.2015 21:00 1,0 C 71 % 1027,4 hPa 0,0 l/m 0,0 km/h (0 Bft) N 0,00 h 0,000 mm 0,0 UV-I 0 W/m -3,6 C 1,0 C 0,0 km/h (0 Bft) 0,00 %
04.03.2015 22:00 1,0 C 72 % 1028,1 hPa 0,0 l/m 0,0 km/h (0 Bft) N 0,00 h 0,000 mm 0,0 UV-I 0 W/m -3,5 C 1,0 C 0,0 km/h (0 Bft) 0,00 %
04.03.2015 23:00 1,2 C 71 % 1028,6 hPa 0,0 l/m 0,0 km/h (0 Bft) N 0,00 h 0,000 mm 0,0 UV-I 0 W/m -3,5 C 1,2 C 0,0 km/h (0 Bft) 0,00 %
05.03.2015 00:00 0,9 C 72 % 1029,2 hPa 0,0 l/m 0,1 km/h (0 Bft) N 0,00 h 0,000 mm 0,0 UV-I 0 W/m -3,6 C 0,9 C 1,0 km/h (0 Bft) 0,00 %
05.03.2015 01:00 0,7 C 73 % 1029,8 hPa 0,0 l/m 0,1 km/h (0 Bft) N 0,00 h 0,000 mm 0,0 UV-I 0 W/m -3,7 C 0,7 C 1,0 km/h (0 Bft) 0,00 %
05.03.2015 02:00 0,9 C 72 % 1029,9 hPa 0,0 l/m 0,0 km/h (0 Bft) N 0,00 h 0,000 mm 0,0 UV-I 0 W/m -3,6 C 0,9 C 0,0 km/h (0 Bft) 0,00 %
05.03.2015 03:00 0,9 C 72 % 1029,9 hPa 0,0 l/m 0,4 km/h (0 Bft) N 0,00 h 0,000 mm 0,0 UV-I 0 W/m -3,6 C 0,9 C 3,0 km/h (1 Bft) 0,00 %
05.03.2015 04:00 1,0 C 71 % 1029,9 hPa 0,0 l/m 0,4 km/h (0 Bft) N 0,00 h 0,000 mm 0,0 UV-I 0 W/m -3,8 C 1,0 C 3,0 km/h (1 Bft) 0,00 %
05.03.2015 05:00 0,9 C 69 % 1030,1 hPa 0,0 l/m 1,5 km/h (1 Bft) W-SW 0,00 h 0,000 mm 0,0 UV-I 0 W/m -4,2 C 0,9 C 2,0 km/h (1 Bft) 0,00 %
05.03.2015 06:00 0,8 C 68 % 1030,6 hPa 0,0 l/m 2,4 km/h (1 Bft) W-SW 0,00 h 0,000 mm 0,0 UV-I 0 W/m -4,4 C 0,5 C 6,0 km/h (2 Bft) 0,00 %
05.03.2015 07:00 1,3 C 65 % 1030,6 hPa 0,0 l/m 3,7 km/h (1 Bft) W-SW 0,00 h 0,000 mm 1,0 UV-I 48 W/m -4,5 C 1,3 C 6,9 km/h (2 Bft) 0,00 %
05.03.2015 08:00 1,9 C 66 % 1030,7 hPa 0,0 l/m 0,6 km/h (0 Bft) SW 0,00 h 0,000 mm 1,3 UV-I 83 W/m -3,8 C 1,9 C 2,0 km/h (1 Bft) 0,00 %
05.03.2015 09:00 2,5 C 70 % 1030,6 hPa 0,0 l/m 0,3 km/h (0 Bft) N 0,00 h 0,000 mm 1,3 UV-I 135 W/m -2,4 C 2,5 C 1,0 km/h (0 Bft) 0,00 %
05.03.2015 10:00 2,5 C 68 % 1030,9 hPa 0,0 l/m 0,3 km/h (0 Bft) W-NW 0,00 h 0,000 mm 1,7 UV-I 102 W/m -2,9 C 2,5 C 1,0 km/h (0 Bft) 0,00 %
05.03.2015 11:00 3,6 C 65 % 1030,4 hPa 0,0 l/m 0,2 km/h (0 Bft) W-NW 0,00 h 0,000 mm 1,7 UV-I 161 W/m -2,5 C 3,6 C 2,0 km/h (1 Bft) 0,00 %
05.03.2015 12:00 3,7 C 65 % 1030,7 hPa 0,0 l/m 2,1 km/h (1 Bft) N 0,00 h 0,000 mm 1,0 UV-I 116 W/m -2,3 C 3,5 C 5,0 km/h (1 Bft) 0,00 %
05.03.2015 13:00 3,5 C 69 % 1030,6 hPa 0,0 l/m 0,0 km/h (0 Bft) N 0,25 h 0,000 mm 1,0 UV-I 176 W/m -1,8 C 3,5 C 0,0 km/h (0 Bft) 0,00 %
05.03.2015 14:00 3,9 C 67 % 1030,1 hPa 0,0 l/m 0,6 km/h (0 Bft) W-SW 0,75 h 0,000 mm 1,0 UV-I 291 W/m -1,7 C 3,9 C 2,0 km/h (1 Bft) 0,00 %
05.03.2015 15:00 5,0 C 63 % 1029,8 hPa 0,0 l/m 0,1 km/h (0 Bft) W-SW 1,00 h 0,000 mm 1,3 UV-I 223 W/m -1,6 C 5,0 C 1,0 km/h (0 Bft) 0,00 %
05.03.2015 16:00 4,3 C 66 % 1031,1 hPa 0,0 l/m 1,8 km/h (1 Bft) SW 0,00 h 0,000 mm 1,0 UV-I 58 W/m -1,6 C 4,3 C 3,0 km/h (1 Bft) 0,00 %
05.03.2015 17:00 3,3 C 71 % 1032,2 hPa 0,0 l/m 0,0 km/h (0 Bft) N 0,00 h 0,000 mm 0,0 UV-I 7 W/m -1,5 C 3,3 C 0,0 km/h (0 Bft) 0,00 %
05.03.2015 18:00 2,0 C 73 % 1033,3 hPa 0,0 l/m 0,0 km/h (0 Bft) N 0,00 h 0,000 mm 0,0 UV-I 0 W/m -2,2 C 2,0 C 0,0 km/h (0 Bft) 0,00 %
05.03.2015 19:00 0,6 C 80 % 1034,2 hPa 0,0 l/m 0,0 km/h (0 Bft) N 0,00 h 0,000 mm 0,0 UV-I 0 W/m -2,5 C 0,6 C 0,0 km/h (0 Bft) 0,00 %
05.03.2015 20:00 0,2 C 81 % 1035,0 hPa 0,0 l/m 0,0 km/h (0 Bft) N 0,00 h 0,000 mm 0,0 UV-I 0 W/m -2,6 C 0,2 C 0,0 km/h (0 Bft) 0,00 %
05.03.2015 21:00 0,1 C 81 % 1035,5 hPa 0,0 l/m 0,0 km/h (0 Bft) N 0,00 h 0,000 mm 0,0 UV-I 0 W/m -2,9 C 0,1 C 0,0 km/h (0 Bft) 0,00 %
05.03.2015 22:00 0,3 C 76 % 1035,8 hPa 0,0 l/m 0,0 km/h (0 Bft) N 0,00 h 0,000 mm 0,0 UV-I 0 W/m -3,4 C 0,3 C 0,0 km/h (0 Bft) 0,00 %
05.03.2015 23:00 -0,7 C 78 % 1035,9 hPa 0,0 l/m 0,0 km/h (0 Bft) N 0,00 h 0,000 mm 0,0 UV-I 0 W/m -4,1 C -0,7 C 0,0 km/h (0 Bft) 0,00 %
06.03.2015 00:00 -1,2 C 78 % 1036,0 hPa 0,0 l/m 0,0 km/h (0 Bft) N 0,00 h 0,000 mm 0,0 UV-I 0 W/m -4,5 C -1,2 C 0,0 km/h (0 Bft) 0,00 %
06.03.2015 01:00 -0,6 C 73 % 1036,1 hPa 0,0 l/m 0,0 km/h (0 Bft) N 0,00 h 0,000 mm 0,0 UV-I 0 W/m -4,9 C -0,6 C 0,0 km/h (0 Bft) 0,00 %
06.03.2015 02:00 -0,2 C 72 % 1035,7 hPa 0,0 l/m 0,0 km/h (0 Bft) N 0,00 h 0,000 mm 0,0 UV-I 0 W/m -4,6 C -0,2 C 0,0 km/h (0 Bft) 0,00 %
06.03.2015 03:00 -0,2 C 74 % 1035,9 hPa 0,0 l/m 0,0 km/h (0 Bft) N 0,00 h 0,000 mm 0,0 UV-I 0 W/m -4,3 C -0,2 C 0,0 km/h (0 Bft) 0,00 %
06.03.2015 04:00 -0,2 C 73 % 1036,3 hPa 0,0 l/m 0,4 km/h (0 Bft) W-SW 0,00 h 0,000 mm 0,0 UV-I 0 W/m -4,5 C -0,2 C 1,0 km/h (0 Bft) 0,00 %
06.03.2015 05:00 -0,4 C 78 % 1036,3 hPa 0,0 l/m 0,0 km/h (0 Bft) N 0,00 h 0,000 mm 0,0 UV-I 0 W/m -3,7 C -0,4 C 0,0 km/h (0 Bft) 0,00 %
06.03.2015 06:00 -0,5 C 77 % 1036,6 hPa 0,0 l/m 0,0 km/h (0 Bft) N 0,00 h 0,000 mm 0,0 UV-I 1 W/m -4,1 C -0,5 C 0,0 km/h (0 Bft) 0,00 %
06.03.2015 07:00 0,1 C 74 % 1037,1 hPa 0,0 l/m 0,0 km/h (0 Bft) N 0,00 h 0,000 mm 1,0 UV-I 43 W/m -4,1 C 0,1 C 0,0 km/h (0 Bft) 0,00 %
06.03.2015 08:00 1,1 C 72 % 1037,4 hPa 0,0 l/m 0,2 km/h (0 Bft) W-SW 0,00 h 0,000 mm 1,3 UV-I 104 W/m -3,4 C 1,1 C 1,0 km/h (0 Bft) 0,00 %
06.03.2015 09:00 2,9 C 69 % 1037,6 hPa 0,0 l/m 1,8 km/h (1 Bft) W-SW 0,00 h 0,000 mm 2,0 UV-I 164 W/m -2,1 C 2,9 C 4,0 km/h (1 Bft) 0,00 %
06.03.2015 10:00 4,5 C 62 % 1037,4 hPa 0,0 l/m 4,2 km/h (1 Bft) SW 0,00 h 0,000 mm 2,0 UV-I 228 W/m -2,2 C 3,9 C 8,9 km/h (2 Bft) 0,00 %
06.03.2015 11:00 4,8 C 62 % 1037,2 hPa 0,0 l/m 3,5 km/h (1 Bft) S 0,00 h 0,000 mm 2,3 UV-I 231 W/m -2,0 C 4,7 C 5,9 km/h (2 Bft) 0,00 %
06.03.2015 12:00 5,8 C 55 % 1036,6 hPa 0,0 l/m 2,1 km/h (1 Bft) SW 0,00 h 0,000 mm 1,7 UV-I 218 W/m -2,5 C 5,8 C 4,0 km/h (1 Bft) 0,00 %
06.03.2015 13:00 5,5 C 53 % 1036,2 hPa 0,0 l/m 2,4 km/h (1 Bft) W-SW 0,00 h 0,000 mm 1,7 UV-I 166 W/m -3,3 C 5,5 C 5,0 km/h (1 Bft) 0,00 %
06.03.2015 14:00 6,3 C 51 % 1035,6 hPa 0,0 l/m 1,7 km/h (1 Bft) W-SW 0,00 h 0,000 mm 1,7 UV-I 188 W/m -3,3 C 6,3 C 3,0 km/h (1 Bft) 0,00 %
06.03.2015 15:00 5,8 C 51 % 1035,4 hPa 0,0 l/m 0,9 km/h (0 Bft) W-SW 0,00 h 0,000 mm 1,0 UV-I 98 W/m -3,7 C 5,8 C 4,0 km/h (1 Bft) 0,00 %
06.03.2015 16:00 5,5 C 53 % 1035,2 hPa 0,0 l/m 0,3 km/h (0 Bft) S-SW 0,00 h 0,000 mm 1,0 UV-I 62 W/m -3,4 C 5,5 C 2,0 km/h (1 Bft) 0,00 %
06.03.2015 17:00 4,8 C 56 % 1035,4 hPa 0,0 l/m 1,4 km/h (1 Bft) W-SW 0,00 h 0,000 mm 0,0 UV-I 13 W/m -3,2 C 4,8 C 4,0 km/h (1 Bft) 0,00 %
06.03.2015 18:00 4,2 C 60 % 1036,1 hPa 0,0 l/m 1,2 km/h (1 Bft) W-SW 0,00 h 0,000 mm 0,0 UV-I 0 W/m -2,8 C 4,2 C 3,0 km/h (1 Bft) 0,00 %
06.03.2015 19:00 3,9 C 61 % 1036,7 hPa 0,0 l/m 1,1 km/h (0 Bft) W-NW 0,00 h 0,000 mm 0,0 UV-I 0 W/m -3,0 C 3,9 C 3,0 km/h (1 Bft) 0,00 %
06.03.2015 20:00 3,4 C 64 % 1037,1 hPa 0,0 l/m 0,1 km/h (0 Bft) N 0,00 h 0,000 mm 0,0 UV-I 0 W/m -2,9 C 3,4 C 1,0 km/h (0 Bft) 0,00 %
06.03.2015 21:00 3,4 C 63 % 1037,4 hPa 0,0 l/m 0,2 km/h (0 Bft) N 0,00 h 0,000 mm 0,0 UV-I 0 W/m -2,9 C 3,4 C 1,0 km/h (0 Bft) 0,00 %
06.03.2015 22:00 3,0 C 67 % 1037,6 hPa 0,0 l/m 0,2 km/h (0 Bft) N 0,00 h 0,000 mm 0,0 UV-I 0 W/m -2,6 C 3,0 C 1,0 km/h (0 Bft) 0,00 %
06.03.2015 23:00 2,6 C 68 % 1037,7 hPa 0,0 l/m 0,0 km/h (0 Bft) N 0,00 h 0,000 mm 0,0 UV-I 0 W/m -2,8 C 2,6 C 0,0 km/h (0 Bft) 0,00 %
07.03.2015 00:00 2,3 C 66 % 1037,0 hPa 0,0 l/m 0,0 km/h (0 Bft) N 0,00 h 0,000 mm 0,0 UV-I 0 W/m -3,4 C 2,3 C 0,0 km/h (0 Bft) 0,00 %
07.03.2015 01:00 2,2 C 66 % 1036,4 hPa 0,0 l/m 0,0 km/h (0 Bft) N 0,00 h 0,000 mm 0,0 UV-I 0 W/m -3,5 C 2,2 C 0,0 km/h (0 Bft) 0,00 %
07.03.2015 02:00 2,0 C 68 % 1036,0 hPa 0,0 l/m 0,0 km/h (0 Bft) N 0,00 h 0,000 mm 0,0 UV-I 0 W/m -3,3 C 2,0 C 0,0 km/h (0 Bft) 0,00 %
07.03.2015 03:00 1,7 C 70 % 1036,1 hPa 0,0 l/m 0,0 km/h (0 Bft) N 0,00 h 0,000 mm 0,0 UV-I 0 W/m -3,2 C 1,7 C 0,0 km/h (0 Bft) 0,00 %
07.03.2015 04:00 1,2 C 74 % 1036,2 hPa 0,0 l/m 0,0 km/h (0 Bft) N 0,00 h 0,000 mm 0,0 UV-I 0 W/m -2,9 C 1,2 C 0,0 km/h (0 Bft) 0,00 %
07.03.2015 05:00 1,3 C 74 % 1036,0 hPa 0,0 l/m 0,0 km/h (0 Bft) N 0,00 h 0,000 mm 0,0 UV-I 0 W/m -2,9 C 1,3 C 0,0 km/h (0 Bft) 0,00 %
07.03.2015 06:00 1,2 C 74 % 1036,3 hPa 0,0 l/m 0,0 km/h (0 Bft) N 0,00 h 0,000 mm 0,0 UV-I 0 W/m -3,0 C 1,2 C 0,0 km/h (0 Bft) 0,00 %
07.03.2015 07:00 1,9 C 72 % 1036,7 hPa 0,0 l/m 0,0 km/h (0 Bft) N 0,75 h 0,000 mm 1,0 UV-I 101 W/m -2,6 C 1,9 C 0,0 km/h (0 Bft) 0,00 %
07.03.2015 08:00 4,3 C 66 % 1036,0 hPa 0,0 l/m 0,2 km/h (0 Bft) N 1,00 h 0,000 mm 1,3 UV-I 193 W/m -1,6 C 4,3 C 1,0 km/h (0 Bft) 0,00 %
07.03.2015 09:00 6,4 C 56 % 1035,5 hPa 0,0 l/m 0,0 km/h (0 Bft) N 0,50 h 0,000 mm 2,0 UV-I 255 W/m -1,8 C 6,4 C 0,0 km/h (0 Bft) 0,00 %
07.03.2015 10:00 7,4 C 52 % 1034,1 hPa 0,0 l/m 0,6 km/h (0 Bft) SW 0,00 h 0,000 mm 3,0 UV-I 181 W/m -1,9 C 7,4 C 2,0 km/h (1 Bft) 0,00 %
07.03.2015 11:00 7,5 C 51 % 1034,0 hPa 0,0 l/m 0,4 km/h (0 Bft) N 0,50 h 0,000 mm 2,7 UV-I 324 W/m -1,9 C 7,5 C 2,0 km/h (1 Bft) 0,00 %
07.03.2015 12:00 7,5 C 51 % 1033,6 hPa 0,0 l/m 0,6 km/h (0 Bft) O 0,00 h 0,000 mm 2,0 UV-I 235 W/m -1,9 C 7,5 C 1,0 km/h (0 Bft) 0,00 %
07.03.2015 13:00 8,1 C 46 % 1032,7 hPa 0,0 l/m 2,1 km/h (1 Bft) O-SO 0,00 h 0,000 mm 2,0 UV-I 223 W/m -2,7 C 8,1 C 4,0 km/h (1 Bft) 0,00 %
07.03.2015 14:00 8,1 C 44 % 1031,9 hPa 0,0 l/m 1,3 km/h (1 Bft) O-SO 0,00 h 0,000 mm 2,0 UV-I 155 W/m -3,5 C 8,1 C 4,0 km/h (1 Bft) 0,00 %
07.03.2015 15:00 7,8 C 46 % 1031,5 hPa 0,0 l/m 2,8 km/h (1 Bft) O-NO 0,00 h 0,000 mm 1,0 UV-I 113 W/m -3,3 C 7,8 C 4,9 km/h (1 Bft) 0,00 %
07.03.2015 16:00 8,0 C 46 % 1031,4 hPa 0,0 l/m 2,8 km/h (1 Bft) O-NO 0,75 h 0,000 mm 1,0 UV-I 343 W/m -3,0 C 7,9 C 6,9 km/h (2 Bft) 0,00 %
07.03.2015 17:00 6,7 C 49 % 1032,2 hPa 0,0 l/m 1,1 km/h (0 Bft) O-SO 1,00 h 0,000 mm 0,0 UV-I 92 W/m -3,2 C 6,7 C 2,0 km/h (1 Bft) 0,00 %
07.03.2015 18:00 4,7 C 56 % 1032,9 hPa 0,0 l/m 0,0 km/h (0 Bft) N 0,00 h 0,000 mm 0,0 UV-I 0 W/m -3,4 C 4,7 C 0,0 km/h (0 Bft) 0,00 %
07.03.2015 19:00 4,3 C 57 % 1033,0 hPa 0,0 l/m 0,1 km/h (0 Bft) N 0,00 h 0,000 mm 0,0 UV-I 0 W/m -3,4 C 4,3 C 1,0 km/h (0 Bft) 0,00 %
07.03.2015 20:00 3,5 C 61 % 1032,9 hPa 0,0 l/m 0,2 km/h (0 Bft) N 0,00 h 0,000 mm 0,0 UV-I 0 W/m -3,3 C 3,5 C 1,0 km/h (0 Bft) 0,00 %
07.03.2015 21:00 1,7 C 65 % 1032,8 hPa 0,0 l/m 0,0 km/h (0 Bft) N 0,00 h 0,000 mm 0,0 UV-I 0 W/m -4,3 C 1,7 C 0,0 km/h (0 Bft) 0,00 %
07.03.2015 22:00 0,3 C 71 % 1032,6 hPa 0,0 l/m 0,0 km/h (0 Bft) N 0,00 h 0,000 mm 0,0 UV-I 0 W/m -4,4 C 0,3 C 0,0 km/h (0 Bft) 0,00 %
07.03.2015 23:00 -0,2 C 74 % 1032,5 hPa 0,0 l/m 0,0 km/h (0 Bft) N 0,00 h 0,000 mm 0,0 UV-I 0 W/m -4,3 C -0,2 C 0,0 km/h (0 Bft) 0,00 %
08.03.2015 00:00 -0,8 C 77 % 1032,5 hPa 0,0 l/m 0,0 km/h (0 Bft) N 0,00 h 0,000 mm 0,0 UV-I 0 W/m -4,5 C -0,8 C 0,0 km/h (0 Bft) 0,00 %
08.03.2015 01:00 -1,6 C 82 % 1032,4 hPa 0,0 l/m 0,0 km/h (0 Bft) N 0,00 h 0,000 mm 0,0 UV-I 0 W/m -4,3 C -1,6 C 0,0 km/h (0 Bft) 0,00 %
08.03.2015 02:00 -1,3 C 81 % 1031,9 hPa 0,0 l/m 0,0 km/h (0 Bft) N 0,00 h 0,000 mm 0,0 UV-I 0 W/m -4,1 C -1,3 C 0,0 km/h (0 Bft) 0,00 %
08.03.2015 03:00 -2,2 C 81 % 1031,6 hPa 0,0 l/m 0,0 km/h (0 Bft) N 0,00 h 0,000 mm 0,0 UV-I 0 W/m -5,0 C -2,2 C 0,0 km/h (0 Bft) 0,00 %
08.03.2015 04:00 -2,7 C 81 % 1031,4 hPa 0,0 l/m 0,0 km/h (0 Bft) N 0,00 h 0,000 mm 0,0 UV-I 0 W/m -5,6 C -2,7 C 0,0 km/h (0 Bft) 0,00 %
08.03.2015 05:00 -2,9 C 81 % 1031,5 hPa 0,0 l/m 0,0 km/h (0 Bft) N 0,00 h 0,000 mm 0,0 UV-I 0 W/m -5,7 C -2,9 C 0,0 km/h (0 Bft) 0,00 %
08.03.2015 06:00 -3,0 C 82 % 1031,6 hPa 0,0 l/m 0,0 km/h (0 Bft) N 0,00 h 0,000 mm 0,0 UV-I 6 W/m -5,7 C -3,0 C 0,0 km/h (0 Bft) 0,00 %
08.03.2015 07:00 -1,6 C 84 % 1031,4 hPa 0,0 l/m 0,0 km/h (0 Bft) N 0,00 h 0,000 mm 1,0 UV-I 46 W/m -3,9 C -1,6 C 0,0 km/h (0 Bft) 0,00 %
08.03.2015 08:00 0,7 C 74 % 1030,8 hPa 0,0 l/m 0,3 km/h (0 Bft) O-SO 0,00 h 0,000 mm 1,3 UV-I 98 W/m -3,5 C 0,7 C 1,0 km/h (0 Bft) 0,00 %
08.03.2015 09:00 2,2 C 68 % 1030,1 hPa 0,0 l/m 1,5 km/h (1 Bft) O-SO 0,00 h 0,000 mm 2,0 UV-I 156 W/m -3,2 C 2,2 C 4,0 km/h (1 Bft) 0,00 %
08.03.2015 10:00 3,5 C 64 % 1028,4 hPa 0,0 l/m 3,1 km/h (1 Bft) O-SO 0,00 h 0,000 mm 2,7 UV-I 246 W/m -2,7 C 3,5 C 5,0 km/h (1 Bft) 0,00 %
08.03.2015 11:00 5,2 C 61 % 1027,4 hPa 0,0 l/m 2,3 km/h (1 Bft) O 0,75 h 0,000 mm 3,3 UV-I 358 W/m -1,8 C 5,2 C 5,0 km/h (1 Bft) 0,00 %
08.03.2015 12:00 6,4 C 60 % 1026,5 hPa 0,0 l/m 3,3 km/h (1 Bft) O-SO 0,00 h 0,000 mm 2,0 UV-I 118 W/m -0,7 C 6,4 C 4,9 km/h (1 Bft) 0,00 %
08.03.2015 13:00 8,2 C 53 % 1025,3 hPa 0,0 l/m 6,1 km/h (2 Bft) O 0,50 h 0,000 mm 2,0 UV-I 320 W/m -0,9 C 7,2 C 8,9 km/h (2 Bft) 0,00 %
08.03.2015 14:00 10,1 C 39 % 1023,9 hPa 0,0 l/m 8,6 km/h (2 Bft) O 1,00 h 0,000 mm 2,0 UV-I 320 W/m -3,2 C 8,3 C 10,9 km/h (2 Bft) 0,00 %
08.03.2015 15:00 10,8 C 38 % 1023,4 hPa 0,0 l/m 7,3 km/h (2 Bft) O 1,00 h 0,000 mm 1,3 UV-I 337 W/m -2,9 C 9,8 C 9,9 km/h (2 Bft) 0,00 %
08.03.2015 16:00 10,8 C 42 % 1023,3 hPa 0,0 l/m 9,6 km/h (2 Bft) O 1,00 h 0,000 mm 1,0 UV-I 257 W/m -1,7 C 8,6 C 12,9 km/h (3 Bft) 0,00 %
08.03.2015 17:00 9,5 C 43 % 1023,9 hPa 0,0 l/m 2,9 km/h (1 Bft) O 0,75 h 0,000 mm 0,0 UV-I 41 W/m -2,4 C 9,5 C 5,0 km/h (1 Bft) 0,00 %
08.03.2015 18:00 8,2 C 43 % 1024,4 hPa 0,0 l/m 7,8 km/h (2 Bft) O-SO 0,00 h 0,000 mm 0,0 UV-I 0 W/m -3,7 C 6,8 C 10,9 km/h (2 Bft) 0,00 %
08.03.2015 19:00 7,2 C 42 % 1024,8 hPa 0,0 l/m 11,8 km/h (2 Bft) O 0,00 h 0,000 mm 0,0 UV-I 0 W/m -4,9 C 3,4 C 16,8 km/h (3 Bft) 0,00 %
08.03.2015 20:00 5,9 C 45 % 1024,9 hPa 0,0 l/m 8,6 km/h (2 Bft) O 0,00 h 0,000 mm 0,0 UV-I 0 W/m -5,1 C 4,2 C 11,9 km/h (2 Bft) 0,00 %
08.03.2015 21:00 4,8 C 50 % 1024,9 hPa 0,0 l/m 8,8 km/h (2 Bft) O-SO 0,00 h 0,000 mm 0,0 UV-I 0 W/m -4,8 C 2,4 C 12,9 km/h (3 Bft) 0,00 %
08.03.2015 22:00 3,2 C 55 % 1024,7 hPa 0,0 l/m 3,6 km/h (1 Bft) O 0,00 h 0,000 mm 0,0 UV-I 0 W/m -4,9 C 3,0 C 4,9 km/h (1 Bft) 0,00 %
08.03.2015 23:00 2,7 C 52 % 1024,8 hPa 0,0 l/m 1,6 km/h (1 Bft) N 0,00 h 0,000 mm 0,0 UV-I 0 W/m -6,1 C 2,7 C 2,0 km/h (1 Bft) 0,00 %
Min-Datum _ 08.03.15 03.03.15 02.03.15 - 02.03.15 - - - - - 03.03.15 03.03.15 02.03.15 02.03.15
_ Min-Zeit 05:30 16:15 08:15 - 00:00 - - - - - 16:15 00:45 00:00 00:00
Minimum _ -3,1 C 32 % 1001,2 hPa - 0,0 km/h (0 Bft) - - - - - -7,8 C -14,0 C 0,0 km/h (0 Bft) 0,00 %
Max-Datum _ 08.03.15 02.03.15 06.03.15 02.03.15 03.03.15 - 03.03.15 02.03.15 04.03.15 04.03.15 02.03.15 08.03.15 03.03.15 02.03.15
_ Max-Zeit 15:45 00:30 23:00 11:30 00:45 - 11:15 00:00 11:00 11:45 08:30 16:15 00:45 00:00
Maximum _ 10,9 C 92 % 1037,9 hPa 3,0 l/m 32,0 km/h
W-SW (5 Bft)
- 0,25 h 0,000 mm 4,0 UV-I 454 W/m 4,7 C 10,9 C 40,0 km/h
W-SW (6 Bft)
0,00 %
Durchschnitt _ 3,1 C 67 % 1026,1 hPa #19,5 l/m 1,9 km/h (1 Bft) W-SW #16:15 h #0,000 mm 1,5 UV-I 150 W/m -2,6 C 2,9 C 3,5 km/h (1 Bft) 0,00 %